Time;durP1;ratioP1;P1;durP2;ratioP2;P2;SDS_P1;SDS_P2;PMS_P1;PMS_P2;Temp;Humidity;BMP_temperature;BMP_pressure;BME280_temperature;BME280_humidity;BME280_pressure;Samples;Min_cycle;Max_cycle;Signal;HPM_P1;HPM_P2
2023/12/08 00:00:45;;;;;;;38.50;21.42;;;;;;;;;;4890491;29;20052;-88
2023/12/08 00:03:12;;;;;;;44.75;21.33;;;;;;;;;;4888360;29;20502;-93
2023/12/08 00:05:41;;;;;;;41.92;19.98;;;;;;;;;;4896105;29;20505;-88
2023/12/08 00:08:07;;;;;;;40.30;22.58;;;;;;;;;;4888929;29;20048;-88
2023/12/08 00:10:36;;;;;;;37.55;20.38;;;;;;;;;;4896930;29;20051;-93
2023/12/08 00:13:02;;;;;;;45.13;21.92;;;;;;;;;;4897462;29;20048;-91
2023/12/08 00:15:28;;;;;;;42.38;21.42;;;;;;;;;;4888840;29;20079;-93
2023/12/08 00:18:01;;;;;;;40.05;20.63;;;;;;;;;;4907927;29;20054;-90
2023/12/08 00:20:27;;;;;;;45.58;21.33;;;;;;;;;;4881561;29;20052;-93
2023/12/08 00:22:56;;;;;;;40.38;21.48;;;;;;;;;;4886134;29;20384;-87
2023/12/08 00:25:22;;;;;;;40.47;22.02;;;;;;;;;;4890892;29;20079;-89
2023/12/08 00:27:48;;;;;;;40.70;21.98;;;;;;;;;;4877410;29;20052;-88
2023/12/08 00:30:14;;;;;;;40.22;22.60;;;;;;;;;;4886277;29;20048;-89
2023/12/08 00:32:41;;;;;;;43.08;23.08;;;;;;;;;;4881233;29;20059;-90
2023/12/08 00:35:22;;;;;;;40.53;21.25;;;;;;;;;;4897479;29;20051;-89
2023/12/08 00:37:48;;;;;;;44.95;24.05;;;;;;;;;;4894227;29;20138;-90
2023/12/08 00:40:15;;;;;;;42.38;21.85;;;;;;;;;;4888315;29;20062;-91
2023/12/08 00:42:41;;;;;;;42.10;20.33;;;;;;;;;;4891558;29;20665;-89
2023/12/08 00:45:08;;;;;;;45.10;21.63;;;;;;;;;;4891801;29;20052;-88
2023/12/08 00:47:34;;;;;;;37.78;19.33;;;;;;;;;;4896766;29;20066;-91
2023/12/08 00:50:00;;;;;;;46.60;21.58;;;;;;;;;;4891281;29;20767;-88
2023/12/08 00:52:26;;;;;;;43.85;23.25;;;;;;;;;;4891921;29;20565;-89
2023/12/08 00:54:52;;;;;;;37.15;19.42;;;;;;;;;;4893572;29;20139;-88
2023/12/08 00:57:21;;;;;;;37.47;18.60;;;;;;;;;;4887212;29;20119;-91
2023/12/08 00:59:48;;;;;;;39.55;21.05;;;;;;;;;;4905618;29;20110;-90
2023/12/08 01:02:17;;;;;;;38.58;17.27;;;;;;;;;;4888098;29;20059;-91
2023/12/08 01:04:43;;;;;;;38.47;20.60;;;;;;;;;;4892102;29;20056;-90
2023/12/08 01:07:18;;;;;;;44.13;22.25;;;;;;;;;;4911125;29;20047;-90
2023/12/08 01:09:48;;;;;;;41.58;21.38;;;;;;;;;;4917488;29;20055;-87
2023/12/08 01:12:17;;;;;;;39.10;18.30;;;;;;;;;;4900526;29;20048;-94
2023/12/08 01:14:43;;;;;;;42.78;20.98;;;;;;;;;;4899208;29;20059;-89
2023/12/08 01:17:09;;;;;;;47.97;22.83;;;;;;;;;;4895392;29;20052;-87
2023/12/08 01:19:35;;;;;;;46.05;23.17;;;;;;;;;;4903757;29;20085;-87
2023/12/08 01:22:02;;;;;;;44.13;22.17;;;;;;;;;;4885479;29;20098;-87
2023/12/08 01:24:28;;;;;;;41.97;21.73;;;;;;;;;;4887080;29;20059;-89
2023/12/08 01:26:54;;;;;;;46.60;22.40;;;;;;;;;;4903985;29;20055;-88
2023/12/08 01:29:20;;;;;;;44.42;22.65;;;;;;;;;;4891102;29;20429;-87
2023/12/08 01:31:46;;;;;;;43.42;21.67;;;;;;;;;;4903690;29;20493;-88
2023/12/08 01:34:12;;;;;;;49.30;22.48;;;;;;;;;;4925825;29;20059;-90
2023/12/08 01:36:38;;;;;;;43.58;23.05;;;;;;;;;;4906660;29;20783;-88
2023/12/08 01:39:05;;;;;;;41.60;22.35;;;;;;;;;;4891185;29;20047;-90
2023/12/08 01:41:32;;;;;;;46.22;23.52;;;;;;;;;;4898373;29;20055;-89
2023/12/08 01:43:58;;;;;;;44.55;23.33;;;;;;;;;;4910276;29;20632;-90
2023/12/08 01:46:24;;;;;;;43.90;21.63;;;;;;;;;;4912593;29;20108;-87
2023/12/08 01:48:50;;;;;;;42.28;21.98;;;;;;;;;;4901429;29;20052;-91
2023/12/08 01:51:17;;;;;;;51.58;23.88;;;;;;;;;;4914761;29;20208;-88
2023/12/08 01:53:44;;;;;;;44.00;23.05;;;;;;;;;;4889613;29;20055;-89
2023/12/08 01:56:12;;;;;;;45.65;22.85;;;;;;;;;;4889663;29;20048;-90
2023/12/08 01:58:39;;;;;;;47.75;25.98;;;;;;;;;;4898840;29;20120;-89
2023/12/08 02:01:07;;;;;;;40.33;22.05;;;;;;;;;;4890783;29;20060;-89
2023/12/08 02:03:33;;;;;;;42.42;23.55;;;;;;;;;;4904309;29;20062;-87
2023/12/08 02:06:03;;;;;;;43.58;22.40;;;;;;;;;;4902605;29;20059;-91
2023/12/08 02:08:29;;;;;;;43.45;21.23;;;;;;;;;;4887484;29;20048;-87
2023/12/08 02:10:56;;;;;;;42.78;22.88;;;;;;;;;;4897162;29;20516;-87
2023/12/08 02:13:22;;;;;;;40.20;21.40;;;;;;;;;;4894110;29;20055;-89
2023/12/08 02:15:50;;;;;;;42.85;23.27;;;;;;;;;;4917007;29;20047;-91
2023/12/08 02:18:17;;;;;;;41.00;22.25;;;;;;;;;;4901786;29;20056;-89
2023/12/08 02:20:43;;;;;;;38.70;22.75;;;;;;;;;;4888329;29;20466;-89
2023/12/08 02:23:09;;;;;;;40.25;21.45;;;;;;;;;;4918403;29;20052;-89
2023/12/08 02:25:41;;;;;;;43.78;23.23;;;;;;;;;;4900588;29;20052;-92
2023/12/08 02:28:07;;;;;;;44.53;23.13;;;;;;;;;;4882556;29;20171;-91
2023/12/08 02:30:34;;;;;;;39.53;20.52;;;;;;;;;;4895952;29;20051;-89
2023/12/08 02:33:00;;;;;;;39.78;22.00;;;;;;;;;;4915105;29;20440;-89
2023/12/08 02:35:26;;;;;;;44.38;21.67;;;;;;;;;;4892095;29;20048;-87
2023/12/08 02:37:55;;;;;;;44.10;22.45;;;;;;;;;;4884480;29;20047;-88
2023/12/08 02:40:21;;;;;;;38.47;22.02;;;;;;;;;;4897542;29;20055;-89
2023/12/08 02:42:47;;;;;;;38.83;22.00;;;;;;;;;;4902495;29;20055;-88
2023/12/08 02:45:14;;;;;;;42.80;21.23;;;;;;;;;;4885480;29;20099;-88
2023/12/08 02:47:40;;;;;;;40.97;22.15;;;;;;;;;;4895916;29;20090;-91
2023/12/08 02:50:06;;;;;;;41.65;21.30;;;;;;;;;;4886670;29;20083;-89
2023/12/08 02:52:32;;;;;;;37.80;20.13;;;;;;;;;;4907346;29;20068;-91
2023/12/08 02:54:58;;;;;;;37.50;22.20;;;;;;;;;;4894336;29;20090;-90
2023/12/08 02:57:24;;;;;;;46.55;22.80;;;;;;;;;;4895263;29;20059;-93
2023/12/08 02:59:51;;;;;;;43.72;21.55;;;;;;;;;;4894347;29;20086;-91
2023/12/08 03:02:17;;;;;;;39.33;21.15;;;;;;;;;;4899888;29;20135;-89
2023/12/08 03:04:43;;;;;;;40.95;20.52;;;;;;;;;;4896384;29;20130;-91
2023/12/08 03:07:09;;;;;;;40.60;20.23;;;;;;;;;;4905046;29;20083;-88
2023/12/08 03:09:35;;;;;;;37.95;20.42;;;;;;;;;;4889818;29;20398;-91
2023/12/08 03:12:01;;;;;;;42.35;22.13;;;;;;;;;;4889162;29;20052;-89
2023/12/08 03:14:27;;;;;;;39.65;21.13;;;;;;;;;;4888993;29;20051;-90
2023/12/08 03:16:54;;;;;;;37.15;20.55;;;;;;;;;;4900324;29;20044;-88
2023/12/08 03:19:20;;;;;;;35.65;20.05;;;;;;;;;;4881464;29;20067;-87
2023/12/08 03:21:46;;;;;;;40.15;21.67;;;;;;;;;;4882736;29;20055;-88
2023/12/08 03:24:12;;;;;;;34.55;20.98;;;;;;;;;;4913244;29;20048;-92
2023/12/08 03:26:38;;;;;;;36.95;20.20;;;;;;;;;;4892800;29;20040;-92
2023/12/08 03:29:08;;;;;;;38.35;20.35;;;;;;;;;;4889227;29;20059;-90
2023/12/08 03:31:41;;;;;;;38.50;21.80;;;;;;;;;;4923315;29;20074;-92
2023/12/08 03:34:07;;;;;;;40.88;20.98;;;;;;;;;;4900653;29;20757;-89
2023/12/08 03:36:34;;;;;;;39.33;20.75;;;;;;;;;;4885204;29;20052;-93
2023/12/08 03:39:00;;;;;;;39.88;22.38;;;;;;;;;;4891161;29;20135;-92
2023/12/08 03:41:26;;;;;;;38.90;20.33;;;;;;;;;;4884815;29;20131;-92
2023/12/08 03:43:52;;;;;;;35.65;19.25;;;;;;;;;;4885590;29;20573;-95
2023/12/08 03:46:18;;;;;;;40.67;20.13;;;;;;;;;;4897560;29;20135;-91
2023/12/08 03:48:44;;;;;;;35.70;20.20;;;;;;;;;;4884492;29;20722;-87
2023/12/08 03:51:11;;;;;;;34.17;18.63;;;;;;;;;;4900571;29;20123;-89
2023/12/08 03:53:37;;;;;;;36.65;20.27;;;;;;;;;;4903527;29;20075;-90
2023/12/08 03:56:06;;;;;;;33.78;18.98;;;;;;;;;;4910577;29;20054;-90
2023/12/08 03:58:32;;;;;;;40.15;20.65;;;;;;;;;;4885080;29;20044;-89
2023/12/08 04:00:58;;;;;;;37.88;20.27;;;;;;;;;;4896409;29;20075;-92
2023/12/08 04:03:24;;;;;;;38.75;20.27;;;;;;;;;;4912248;29;20577;-92
2023/12/08 04:05:50;;;;;;;39.72;20.83;;;;;;;;;;4891988;29;20051;-90
2023/12/08 04:08:17;;;;;;;40.63;20.45;;;;;;;;;;4887984;29;20480;-93
2023/12/08 04:10:47;;;;;;;46.03;22.30;;;;;;;;;;4884144;29;20048;-93
2023/12/08 04:13:17;;;;;;;45.72;23.17;;;;;;;;;;4900291;29;20087;-90
2023/12/08 04:15:43;;;;;;;50.25;22.98;;;;;;;;;;4884885;29;20044;-90
2023/12/08 04:18:09;;;;;;;56.42;23.65;;;;;;;;;;4898707;29;20059;-89
2023/12/08 04:20:35;;;;;;;54.10;24.83;;;;;;;;;;4901938;29;20063;-89
2023/12/08 04:23:06;;;;;;;59.00;25.08;;;0.10;99.90;;;;;;4891522;29;20044;-90
2023/12/08 04:25:32;;;;;;;55.17;25.52;;;;;;;;;;4895110;29;20513;-88
2023/12/08 04:27:58;;;;;;;72.57;25.65;;;;;;;;;;4892302;29;20135;-90
2023/12/08 04:30:25;;;;;;;77.60;27.33;;;;;;;;;;4900506;29;20067;-91
2023/12/08 04:32:51;;;;;;;95.05;27.73;;;;;;;;;;4895360;29;20197;-88
2023/12/08 04:35:17;;;;;;;105.97;28.95;;;;;;;;;;4893037;29;20854;-90
2023/12/08 04:37:43;;;;;;;119.88;30.30;;;;;;;;;;4890718;29;20511;-89
2023/12/08 04:40:09;;;;;;;113.00;30.67;;;;;;;;;;4884208;29;20048;-90
2023/12/08 04:42:36;;;;;;;129.38;31.85;;;;;;;;;;4899922;29;20063;-89
2023/12/08 04:45:03;;;;;;;85.55;28.30;;;-0.10;99.90;;;;;;4887789;29;20454;-91
2023/12/08 04:47:29;;;;;;;97.82;29.52;;;;;;;;;;4882753;29;20052;-93
2023/12/08 04:49:55;;;;;;;122.50;30.88;;;;;;;;;;4878877;29;20052;-93
2023/12/08 04:52:21;;;;;;;149.52;33.25;;;;;;;;;;4890363;29;20046;-91
2023/12/08 04:54:47;;;;;;;149.85;34.35;;;;;;;;;;4916526;29;20100;-91
2023/12/08 04:57:14;;;;;;;125.78;31.35;;;;;;;;;;4902619;29;20043;-91
2023/12/08 04:59:40;;;;;;;159.05;35.00;;;;;;;;;;4885903;29;20085;-90
2023/12/08 05:02:06;;;;;;;161.90;34.95;;;;;;;;;;4889827;29;20825;-91
2023/12/08 05:04:32;;;;;;;140.35;34.63;;;;;;;;;;4891567;29;20086;-90
2023/12/08 05:06:58;;;;;;;138.23;33.88;;;;;;;;;;4887936;29;20180;-90
2023/12/08 05:09:24;;;;;;;175.88;36.70;;;;;;;;;;4901224;29;20096;-89
2023/12/08 05:11:50;;;;;;;170.85;37.97;;;;;;;;;;4881533;29;20123;-90
2023/12/08 05:14:16;;;;;;;187.32;37.92;;;;;;;;;;4901444;29;20044;-91
2023/12/08 05:16:43;;;;;;;175.93;37.75;;;;;;;;;;4898615;29;20052;-91
2023/12/08 05:19:09;;;;;;;155.77;37.13;;;;;;;;;;4892181;29;20060;-91
2023/12/08 05:21:35;;;;;;;167.13;36.33;;;;;;;;;;4890664;29;20056;-91
2023/12/08 05:24:01;;;;;;;180.13;36.33;;;;;;;;;;4883495;29;20059;-89
2023/12/08 05:26:27;;;;;;;181.77;37.95;;;;;;;;;;4895265;29;20080;-90
2023/12/08 05:28:54;;;;;;;190.93;38.42;;;;;;;;;;4886043;29;20116;-90
2023/12/08 05:31:22;;;;;;;200.93;39.40;;;;;;;;;;4887914;29;20138;-92
2023/12/08 05:33:48;;;;;;;191.65;39.78;;;;;;;;;;4897456;29;20066;-92
2023/12/08 05:36:15;;;;;;;210.40;40.30;;;;;;;;;;4904607;29;20047;-92
2023/12/08 05:38:44;;;;;;;224.63;40.08;;;;;;;;;;4898752;29;20051;-92
2023/12/08 05:41:10;;;;;;;236.85;40.10;;;;;;;;;;4904631;29;20055;-90
2023/12/08 05:43:37;;;;;;;227.55;40.28;;;;;;;;;;4897536;29;20059;-92
2023/12/08 05:46:05;;;;;;;245.88;40.58;;;;;;;;;;4897894;29;20089;-90
2023/12/08 05:48:31;;;;;;;187.65;38.25;;;;;;;;;;4898091;29;20111;-91
2023/12/08 05:51:00;;;;;;;213.70;41.13;;;;;;;;;;4899547;29;20055;-89
2023/12/08 05:53:27;;;;;;;209.98;41.75;;;;;;;;;;4891864;29;20771;-90
2023/12/08 05:55:53;;;;;;;228.68;42.33;;;;;;;;;;4890861;29;20055;-91
2023/12/08 05:58:19;;;;;;;209.43;40.85;;;;;;;;;;4891628;29;20081;-88
2023/12/08 06:00:50;;;;;;;269.60;43.42;;;;;;;;;;4906577;29;20099;-87
2023/12/08 06:03:16;;;;;;;227.10;40.58;;;;;;;;;;4908139;29;20405;-89
2023/12/08 06:05:42;;;;;;;241.15;44.25;;;;;;;;;;4905343;29;20056;-89
2023/12/08 06:08:08;;;;;;;243.38;44.17;;;;;;;;;;4912747;29;20165;-88
2023/12/08 06:10:35;;;;;;;228.90;42.60;;;;;;;;;;4906949;29;20067;-90
2023/12/08 06:13:06;;;;;;;266.90;44.63;;;;;;;;;;4907036;29;20050;-88
2023/12/08 06:15:32;;;;;;;221.23;44.08;;;;;;;;;;4887340;29;20060;-90
2023/12/08 06:18:14;;;;;;;256.92;45.88;;;;;;;;;;4890691;29;20052;-86
2023/12/08 06:20:40;;;;;;;257.83;44.42;;;;;;;;;;4910915;29;20051;-89
2023/12/08 06:23:07;;;;;;;284.65;46.22;;;;;;;;;;4905220;29;20058;-89
2023/12/08 06:25:34;;;;;;;235.88;43.97;;;;;;;;;;4890924;29;20056;-90
2023/12/08 06:28:00;;;;;;;272.02;46.17;;;;;;;;;;4892477;29;20124;-88
2023/12/08 06:30:32;;;;;;;279.90;44.90;;;;;;;;;;4893155;29;20051;-92
2023/12/08 06:32:58;;;;;;;282.13;46.28;;;;;;;;;;4920174;29;20055;-91
2023/12/08 06:35:24;;;;;;;236.75;44.10;;;;;;;;;;4907797;29;20058;-91
2023/12/08 06:37:57;;;;;;;260.20;44.85;;;;;;;;;;4909330;29;20056;-92
2023/12/08 06:40:23;;;;;;;260.45;43.83;;;;;;;;;;4908732;29;20060;-93
2023/12/08 06:42:49;;;;;;;264.10;44.17;;;;;;;;;;4893092;29;20048;-92
2023/12/08 06:45:15;;;;;;;273.48;46.25;;;;;;;;;;4896195;29;20111;-94
2023/12/08 06:47:41;;;;;;;275.77;45.38;;;;;;;;;;4898908;29;20087;-90
2023/12/08 06:50:08;;;;;;;269.52;44.92;;;;;;;;;;4896676;29;20383;-87
2023/12/08 06:52:34;;;;;;;233.48;41.78;;;;;;;;;;4892058;29;20047;-89
2023/12/08 06:55:01;;;;;;;245.27;44.20;;;;;;;;;;4909058;29;20047;-91
2023/12/08 06:57:27;;;;;;;275.40;44.63;;;;;;;;;;4889082;29;20044;-93
2023/12/08 06:59:54;;;;;;;275.40;45.05;;;;;;;;;;4892500;29;20146;-90
2023/12/08 07:02:40;;;;;;;255.55;43.30;;;;;;;;;;4913559;29;20079;-91
2023/12/08 07:05:10;;;;;;;234.77;41.90;;;;;;;;;;4891055;29;20143;-87
2023/12/08 07:07:36;;;;;;;263.00;44.67;;;;;;;;;;4894065;29;20047;-91
2023/12/08 07:10:08;;;;;;;247.15;43.78;;;;;;;;;;4904698;29;20682;-92
2023/12/08 07:12:38;;;;;;;273.50;47.22;;;;;;;;;;4896024;29;20064;-91
2023/12/08 07:15:08;;;;;;;277.27;42.53;;;;;;;;;;4898020;29;20052;-90
2023/12/08 07:17:53;;;;;;;263.98;45.00;;;0.00;99.90;;;;;;4894398;29;20059;-92
2023/12/08 07:20:21;;;;;;;265.42;45.20;;;;;;;;;;4903564;29;20051;-91
2023/12/08 07:22:47;;;;;;;230.07;40.58;;;;;;;;;;4903718;29;20055;-91
2023/12/08 07:25:15;;;;;;;281.90;46.75;;;;;;;;;;4889763;29;20439;-90
2023/12/08 07:27:49;;;;;;;279.90;47.20;;;;;;;;;;4895115;29;20949;-89
2023/12/08 07:30:18;;;;;;;283.23;46.47;;;;;;;;;;4903231;29;20052;-90
2023/12/08 07:32:50;;;;;;;264.90;44.58;;;;;;;;;;4912741;29;20057;-89
2023/12/08 07:35:20;;;;;;;244.50;41.30;;;;;;;;;;4910647;29;20134;-90
2023/12/08 07:37:46;;;;;;;251.15;43.17;;;;;;;;;;4905066;29;20055;-90
2023/12/08 07:40:12;;;;;;;213.35;42.42;;;;;;;;;;4904422;29;20055;-91
2023/12/08 07:42:38;;;;;;;294.80;44.83;;;;;;;;;;4892617;29;20051;-91
2023/12/08 07:45:08;;;;;;;245.07;42.75;;;;;;;;;;4882867;29;20127;-88
2023/12/08 07:47:40;;;;;;;250.95;42.35;;;;;;;;;;4884766;29;20052;-90
2023/12/08 07:50:06;;;;;;;252.30;42.45;;;;;;;;;;4886515;29;20044;-89
2023/12/08 07:52:33;;;;;;;282.08;44.72;;;;;;;;;;4912141;29;20048;-88
2023/12/08 07:55:00;;;;;;;229.85;41.88;;;;;;;;;;4883806;29;20063;-90
2023/12/08 07:57:29;;;;;;;250.68;42.65;;;;;;;;;;4901369;29;20083;-92
2023/12/08 07:59:55;;;;;;;267.50;44.65;;;;;;;;;;4895768;29;20528;-89
2023/12/08 08:02:21;;;;;;;247.52;43.55;;;;;;;;;;4897828;29;20055;-90
2023/12/08 08:04:57;;;;;;;237.63;39.90;;;;;;;;;;4885785;29;20048;-88
2023/12/08 08:07:29;;;;;;;198.02;40.45;;;;;;;;;;4895849;29;20044;-90
2023/12/08 08:09:56;;;;;;;210.77;41.17;;;;;;;;;;4902908;29;20043;-89
2023/12/08 08:12:23;;;;;;;254.02;45.90;;;;;;;;;;4910321;29;20067;-90
2023/12/08 08:14:49;;;;;;;216.93;38.75;;;;;;;;;;4906983;29;20057;-92
2023/12/08 08:17:15;;;;;;;195.68;39.53;;;;;;;;;;4902827;29;20024;-89
2023/12/08 08:19:42;;;;;;;346.88;46.97;;;;;;;;;;4899108;29;20047;-90
2023/12/08 08:22:18;;;;;;;232.35;42.33;;;;;;;;;;4900191;29;20040;-94
2023/12/08 08:24:46;;;;;;;248.88;40.63;;;;;;;;;;4904450;29;20058;-89
2023/12/08 08:27:13;;;;;;;246.27;43.83;;;;;;;;;;4893915;29;20048;-91
2023/12/08 08:29:48;;;;;;;233.77;41.88;;;;;;;;;;4887014;29;20136;-92
2023/12/08 08:32:18;;;;;;;209.10;39.08;;;;;;;;;;4906723;29;20086;-89
2023/12/08 08:34:45;;;;;;;216.65;41.58;;;;;;;;;;4897321;29;20111;-93
2023/12/08 08:37:13;;;;;;;230.80;43.08;;;;;;;;;;4895766;29;20054;-91
2023/12/08 08:39:39;;;;;;;279.23;46.35;;;;;;;;;;4903403;29;20052;-89
2023/12/08 08:42:05;;;;;;;237.18;40.58;;;;;;;;;;4905351;29;20505;-90
2023/12/08 08:44:31;;;;;;;267.63;45.03;;;;;;;;;;4907702;29;20052;-91
2023/12/08 08:46:57;;;;;;;310.40;45.58;;;;;;;;;;4899155;29;20118;-90
2023/12/08 08:49:26;;;;;;;219.68;41.25;;;;;;;;;;4907044;29;20397;-90
2023/12/08 08:51:53;;;;;;;244.68;41.97;;;;;;;;;;4895265;29;20045;-89
2023/12/08 08:54:21;;;;;;;246.82;44.38;;;;;;;;;;4897196;29;20091;-90
2023/12/08 08:56:47;;;;;;;277.08;45.08;;;;;;;;;;4905521;29;20135;-90
2023/12/08 08:59:13;;;;;;;211.25;40.95;;;;;;;;;;4897459;29;20460;-89
2023/12/08 09:01:41;;;;;;;257.77;42.60;;;;;;;;;;4881288;29;20044;-89
2023/12/08 09:04:07;;;;;;;164.45;35.75;;;;;;;;;;4877390;29;20051;-91
2023/12/08 09:06:35;;;;;;;251.77;43.60;;;;;;;;;;4882876;29;20055;-90
2023/12/08 09:09:10;;;;;;;284.63;44.15;;;;;;;;;;4912785;29;20067;-91
2023/12/08 09:11:37;;;;;;;241.38;42.40;;;;;;;;;;4898523;29;20085;-91
2023/12/08 09:14:03;;;;;;;259.67;44.10;;;;;;;;;;4911173;29;20047;-90
2023/12/08 09:16:29;;;;;;;178.45;37.90;;;;;;;;;;4887115;29;20491;-89
2023/12/08 09:18:55;;;;;;;267.63;41.80;;;;;;;;;;4901741;29;20055;-91
2023/12/08 09:21:22;;;;;;;248.65;44.15;;;;;;;;;;4896822;29;20549;-92
2023/12/08 09:23:48;;;;;;;214.35;40.50;;;;;;;;;;4895565;29;20091;-90
2023/12/08 09:26:14;;;;;;;252.18;43.53;;;;;;;;;;4892521;29;20052;-91
2023/12/08 09:28:40;;;;;;;232.45;43.33;;;;;;;;;;4924375;29;20048;-91
2023/12/08 09:31:06;;;;;;;234.38;41.33;;;;;;;;;;4892679;29;20051;-91
2023/12/08 09:33:32;;;;;;;233.50;42.45;;;;;;;;;;4898713;29;20048;-89
2023/12/08 09:35:59;;;;;;;266.42;44.63;;;;;;;;;;4897830;29;20090;-91
2023/12/08 09:38:25;;;;;;;264.05;42.95;;;;;;;;;;4903964;29;20043;-89
2023/12/08 09:40:52;;;;;;;280.98;44.13;;;;;;;;;;4886378;29;20627;-90
2023/12/08 09:43:31;;;;;;;237.75;42.20;;;;;;;;;;4899399;29;20106;-90
2023/12/08 09:45:58;;;;;;;304.27;47.35;;;;;;;;;;4884478;29;20048;-91
2023/12/08 09:48:26;;;;;;;196.55;40.70;;;;;;;;;;4898597;29;20047;-90
2023/12/08 09:50:54;;;;;;;227.98;42.42;;;;;;;;;;4900906;29;20080;-93
2023/12/08 09:53:20;;;;;;;212.82;43.17;;;;;;;;;;4893016;29;20051;-91
2023/12/08 09:55:47;;;;;;;212.23;40.75;;;;;;;;;;4886611;29;20052;-91
2023/12/08 09:58:16;;;;;;;198.57;39.00;;;;;;;;;;4899492;29;20051;-90
2023/12/08 10:00:42;;;;;;;189.27;38.53;;;;;;;;;;4892916;29;20066;-89
2023/12/08 10:03:08;;;;;;;221.05;40.25;;;;;;;;;;4898298;29;20915;-90
2023/12/08 10:05:35;;;;;;;251.68;44.53;;;;;;;;;;4886605;29;20059;-91
2023/12/08 10:08:02;;;;;;;271.55;44.33;;;;;;;;;;4899082;29;20048;-90
2023/12/08 10:10:30;;;;;;;235.88;41.00;;;;;;;;;;4897744;29;20889;-90
2023/12/08 10:12:56;;;;;;;214.43;42.20;;;;;;;;;;4901126;29;20058;-90
2023/12/08 10:15:26;;;;;;;251.65;43.15;;;;;;;;;;4900025;29;20052;-94
2023/12/08 10:17:52;;;;;;;198.30;39.17;;;;;;;;;;4892174;29;20055;-94
2023/12/08 10:20:22;;;;;;;166.57;38.80;;;;;;;;;;4887919;29;20051;-95
2023/12/08 10:22:51;;;;;;;282.88;47.10;;;;;;;;;;4889957;29;20564;-93
2023/12/08 10:25:21;;;;;;;173.60;39.70;;;;;;;;;;4894831;29;20052;-95
2023/12/08 10:27:49;;;;;;;232.73;45.60;;;;;;;;;;4916896;29;20132;-91
2023/12/08 10:30:16;;;;;;;247.60;45.38;;;;;;;;;;4901787;29;20047;-90
2023/12/08 10:32:43;;;;;;;231.85;41.05;;;;;;;;;;4899305;29;20126;-93
2023/12/08 10:35:12;;;;;;;194.05;42.22;;;;;;;;;;4903764;29;20056;-93
2023/12/08 10:37:47;;;;;;;274.02;46.00;;;;;;;;;;4891489;29;20055;-89
2023/12/08 10:40:17;;;;;;;160.10;38.78;;;;;;;;;;4905498;29;20075;-93
2023/12/08 10:42:48;;;;;;;316.30;49.35;;;0.60;99.90;;;;;;4899319;29;20868;-94
2023/12/08 10:45:16;;;;;;;278.02;46.95;;;;;;;;;;4910945;29;20135;-91
2023/12/08 10:47:44;;;;;;;271.75;47.33;;;;;;;;;;4888812;29;20131;-91
2023/12/08 10:50:13;;;;;;;232.48;46.90;;;;;;;;;;4898764;29;20048;-95
2023/12/08 10:52:40;;;;;;;366.90;51.63;;;;;;;;;;4912942;29;20413;-92
2023/12/08 10:55:09;;;;;;;185.57;42.63;;;;;;;;;;4892895;29;20802;-95
2023/12/08 10:57:36;;;;;;;269.77;48.30;;;;;;;;;;4898038;29;20048;-95
2023/12/08 11:00:16;;;;;;;303.75;48.47;;;;;;;;;;4893055;29;20058;-93
2023/12/08 11:02:49;;;;;;;274.40;48.00;;;;;;;;;;4911178;29;20199;-90
2023/12/08 11:05:22;;;;;;;281.15;45.72;;;;;;;;;;4903178;29;20048;-94
2023/12/08 11:07:50;;;;;;;307.35;48.47;;;;;;;;;;4894570;29;20130;-93
2023/12/08 11:10:18;;;;;;;270.38;47.13;;;;;;;;;;4907560;29;20136;-93
2023/12/08 11:12:56;;;;;;;188.45;42.42;;;;;;;;;;4900996;29;20056;-90
2023/12/08 11:15:23;;;;;;;289.40;48.20;;;;;;;;;;4890280;29;20059;-94
2023/12/08 11:18:01;;;;;;;243.50;46.55;;;;;;;;;;4889310;29;20127;-93
2023/12/08 11:20:27;;;;;;;226.35;44.95;;;;;;;;;;4902381;29;20107;-95
2023/12/08 11:22:54;;;;;;;166.05;42.78;;;;;;;;;;4900310;29;20791;-93
2023/12/08 11:25:24;;;;;;;266.52;48.17;;;;;;;;;;4893204;29;20088;-92
2023/12/08 11:28:11;;;;;;;231.98;44.65;;;;;;;;;;4887804;29;20040;-91
2023/12/08 11:30:37;;;;;;;296.67;49.90;;;;;;;;;;4915921;29;20112;-93
2023/12/08 11:33:27;;;;;;;288.65;51.28;;;;;;;;;;4893566;29;20048;-94
2023/12/08 11:35:53;;;;;;;321.00;48.83;;;;;;;;;;4902521;29;20059;-92
2023/12/08 11:38:29;;;;;;;244.85;47.72;;;;;;;;;;4896834;29;20051;-91
2023/12/08 11:40:55;;;;;;;243.88;49.40;;;;;;;;;;4910612;29;20060;-93
2023/12/08 11:43:21;;;;;;;262.38;47.38;;;;;;;;;;4898483;29;20059;-93
2023/12/08 11:45:49;;;;;;;255.40;52.83;;;;;;;;;;4891957;29;20135;-93
2023/12/08 11:48:15;;;;;;;273.85;48.05;;;;;;;;;;4894852;29;20083;-93
2023/12/08 11:50:41;;;;;;;274.00;51.83;;;;;;;;;;4893216;29;20047;-91
2023/12/08 11:53:08;;;;;;;314.85;53.08;;;;;;;;;;4893764;29;20521;-93
2023/12/08 11:55:34;;;;;;;352.92;54.40;;;;;;;;;;4887382;29;20504;-92
2023/12/08 11:58:09;;;;;;;309.60;54.63;;;;;;;;;;4902611;29;20062;-91
2023/12/08 12:00:36;;;;;;;328.33;54.40;;;;;;;;;;4887554;29;20056;-92
2023/12/08 12:03:04;;;;;;;337.23;55.35;;;0.90;99.90;;;;;;4917003;29;20051;-92
2023/12/08 12:05:39;;;;;;;380.20;56.88;;;;;;;;;;4891308;29;20086;-93
2023/12/08 12:08:09;;;;;;;405.38;60.75;;;;;;;;;;4892062;29;20051;-92
2023/12/08 12:10:35;;;;;;;329.85;54.53;;;;;;;;;;4900947;29;20047;-92
2023/12/08 12:13:05;;;;;;;362.10;54.78;;;;;;;;;;4891999;29;20051;-93
2023/12/08 12:15:33;;;;;;;400.58;56.15;;;;;;;;;;4894496;29;20051;-93
2023/12/08 12:17:59;;;;;;;414.77;55.95;;;;;;;;;;4895661;29;20050;-91
2023/12/08 12:20:38;;;;;;;311.13;53.08;;;;;;;;;;4892123;29;20047;-91
2023/12/08 12:23:05;;;;;;;448.23;61.20;;;;;;;;;;4893910;29;20048;-92
2023/12/08 12:25:34;;;;;;;372.23;59.30;;;;;;;;;;4897140;29;20063;-95
2023/12/08 12:28:00;;;;;;;433.88;60.47;;;;;;;;;;4901673;29;20092;-92
2023/12/08 12:30:26;;;;;;;422.90;57.67;;;;;;;;;;4895786;29;20052;-92
2023/12/08 12:32:53;;;;;;;446.58;57.83;;;;;;;;;;4884883;29;20066;-91
2023/12/08 12:35:19;;;;;;;357.90;56.58;;;;;;;;;;4917229;29;20054;-92
2023/12/08 12:37:45;;;;;;;341.75;54.97;;;;;;;;;;4890473;29;20084;-93
2023/12/08 12:40:11;;;;;;;334.85;59.38;;;;;;;;;;4893120;29;20044;-91
2023/12/08 12:42:41;;;;;;;321.67;54.85;;;;;;;;;;4884872;29;20044;-91
2023/12/08 12:45:11;;;;;;;352.50;55.22;;;;;;;;;;4889092;29;20048;-92
2023/12/08 12:47:37;;;;;;;514.95;65.25;;;;;;;;;;4922226;29;20050;-92
2023/12/08 12:50:07;;;;;;;318.85;54.83;;;;;;;;;;4896587;29;20128;-92
2023/12/08 12:52:40;;;;;;;379.58;58.40;;;0.90;99.90;;;;;;4892318;29;20080;-93
2023/12/08 12:55:24;;;;;;;408.60;58.00;;;;;;;;;;4907400;29;20048;-90
2023/12/08 12:57:50;;;;;;;423.17;58.28;;;;;;;;;;4889990;29;20043;-90
2023/12/08 13:00:34;;;;;;;346.95;55.33;;;0.90;99.90;;;;;;4911618;29;20044;-93
2023/12/08 13:03:10;;;;;;;442.48;60.45;;;;;;;;;;4889335;29;20574;-92
2023/12/08 13:05:56;;;;;;;428.08;59.15;;;;;;;;;;4888563;29;20094;-92
2023/12/08 13:08:23;;;;;;;414.27;59.28;;;;;;;;;;4914960;29;20131;-90
2023/12/08 13:10:50;;;;;;;431.65;59.90;;;;;;;;;;4903689;29;20071;-90
2023/12/08 13:13:16;;;;;;;434.33;58.92;;;;;;;;;;4893936;29;20056;-92
2023/12/08 13:15:42;;;;;;;496.65;63.10;;;;;;;;;;4908005;29;20056;-92
2023/12/08 13:18:12;;;;;;;395.08;58.38;;;;;;;;;;4891428;29;20079;-92
2023/12/08 13:20:38;;;;;;;400.60;58.83;;;;;;;;;;4895438;29;20136;-93
2023/12/08 13:23:04;;;;;;;358.85;55.45;;;;;;;;;;4916536;29;20142;-93
2023/12/08 13:25:31;;;;;;;415.20;60.90;;;;;;;;;;4908435;29;20056;-94
2023/12/08 13:27:59;;;;;;;415.75;60.20;;;;;;;;;;4893121;29;20048;-91
2023/12/08 13:30:34;;;;;;;421.08;61.00;;;;;;;;;;4888492;29;20091;-92
2023/12/08 13:33:00;;;;;;;326.50;55.75;;;;;;;;;;4893113;29;20044;-93
2023/12/08 13:35:26;;;;;;;421.83;62.08;;;;;;;;;;4915085;29;20044;-90
2023/12/08 13:37:53;;;;;;;447.83;64.55;;;;;;;;;;4892804;29;20062;-91
2023/12/08 13:40:25;;;;;;;437.42;62.80;;;;;;;;;;4897697;29;20095;-92
2023/12/08 13:42:52;;;;;;;434.50;62.95;;;;;;;;;;4891837;29;20050;-93
2023/12/08 13:45:18;;;;;;;435.63;62.63;;;;;;;;;;4893567;29;20367;-91
2023/12/08 13:47:44;;;;;;;405.50;58.15;;;;;;;;;;4900541;29;20424;-92
2023/12/08 13:50:10;;;;;;;363.17;55.38;;;;;;;;;;4895014;29;20493;-91
2023/12/08 13:52:37;;;;;;;491.95;65.57;;;;;;;;;;4889454;29;20188;-91
2023/12/08 13:55:03;;;;;;;495.80;61.30;;;;;;;;;;4883825;29;20051;-93
2023/12/08 13:57:29;;;;;;;468.92;62.60;;;;;;;;;;4886089;29;20052;-92
2023/12/08 13:59:55;;;;;;;412.67;62.17;;;;;;;;;;4899242;29;20555;-91
2023/12/08 14:02:21;;;;;;;401.17;58.78;;;;;;;;;;4895760;29;20052;-91
2023/12/08 14:04:50;;;;;;;470.15;66.93;;;;;;;;;;4893605;29;20054;-92
2023/12/08 14:07:19;;;;;;;420.00;61.67;;;;;;;;;;4899510;29;20525;-90
2023/12/08 14:09:45;;;;;;;436.27;62.60;;;;;;;;;;4905524;29;20056;-91